sensor_id;sensor_type;location;lat;lon;timestamp;P1;durP1;ratioP1;P2;durP2;ratioP2
50309;SDS011;36207;51.850;21.698;2023-04-03T00:01:15;6.20;;;2.70;;
50309;SDS011;36207;51.850;21.698;2023-04-03T00:03:42;4.30;;;2.30;;
50309;SDS011;36207;51.850;21.698;2023-04-03T00:06:08;3.80;;;2.50;;
50309;SDS011;36207;51.850;21.698;2023-04-03T00:08:36;4.70;;;2.40;;
50309;SDS011;36207;51.850;21.698;2023-04-03T00:11:03;3.80;;;2.30;;
50309;SDS011;36207;51.850;21.698;2023-04-03T00:13:30;5.10;;;2.10;;
50309;SDS011;36207;51.850;21.698;2023-04-03T00:15:58;4.90;;;2.50;;
50309;SDS011;36207;51.850;21.698;2023-04-03T00:18:24;4.30;;;2.30;;
50309;SDS011;36207;51.850;21.698;2023-04-03T00:20:50;3.30;;;1.90;;
50309;SDS011;36207;51.850;21.698;2023-04-03T00:23:16;4.20;;;2.20;;
50309;SDS011;36207;51.850;21.698;2023-04-03T00:25:42;4.70;;;2.40;;
50309;SDS011;36207;51.850;21.698;2023-04-03T00:28:08;3.60;;;1.80;;
50309;SDS011;36207;51.850;21.698;2023-04-03T00:30:35;4.10;;;2.30;;
50309;SDS011;36207;51.850;21.698;2023-04-03T00:33:01;4.00;;;2.20;;
50309;SDS011;36207;51.850;21.698;2023-04-03T00:35:27;3.60;;;2.30;;
50309;SDS011;36207;51.850;21.698;2023-04-03T00:37:54;3.90;;;2.00;;
50309;SDS011;36207;51.850;21.698;2023-04-03T00:40:23;2.90;;;1.90;;
50309;SDS011;36207;51.850;21.698;2023-04-03T00:42:59;3.40;;;1.90;;
50309;SDS011;36207;51.850;21.698;2023-04-03T00:45:37;4.20;;;2.00;;
50309;SDS011;36207;51.850;21.698;2023-04-03T00:48:05;4.10;;;2.10;;
50309;SDS011;36207;51.850;21.698;2023-04-03T00:50:34;6.60;;;2.20;;
50309;SDS011;36207;51.850;21.698;2023-04-03T00:53:05;3.50;;;2.00;;
50309;SDS011;36207;51.850;21.698;2023-04-03T00:55:34;4.10;;;1.80;;
50309;SDS011;36207;51.850;21.698;2023-04-03T00:58:01;3.70;;;1.90;;
50309;SDS011;36207;51.850;21.698;2023-04-03T01:00:28;4.00;;;1.90;;
50309;SDS011;36207;51.850;21.698;2023-04-03T01:02:54;4.10;;;2.00;;
50309;SDS011;36207;51.850;21.698;2023-04-03T01:05:21;5.60;;;2.40;;
50309;SDS011;36207;51.850;21.698;2023-04-03T01:07:47;3.60;;;2.00;;
50309;SDS011;36207;51.850;21.698;2023-04-03T01:10:16;5.20;;;2.00;;
50309;SDS011;36207;51.850;21.698;2023-04-03T01:12:45;7.70;;;2.30;;
50309;SDS011;36207;51.850;21.698;2023-04-03T01:15:14;4.20;;;2.10;;
50309;SDS011;36207;51.850;21.698;2023-04-03T01:17:44;5.50;;;2.20;;
50309;SDS011;36207;51.850;21.698;2023-04-03T01:28:13;3.70;;;1.90;;
50309;SDS011;36207;51.850;21.698;2023-04-03T01:31:18;6.80;;;2.30;;
50309;SDS011;36207;51.850;21.698;2023-04-03T01:33:50;4.20;;;1.90;;
50309;SDS011;36207;51.850;21.698;2023-04-03T01:36:29;4.80;;;2.20;;
50309;SDS011;36207;51.850;21.698;2023-04-03T01:38:56;7.10;;;2.50;;
50309;SDS011;36207;51.850;21.698;2023-04-03T01:41:25;3.10;;;1.70;;
50309;SDS011;36207;51.850;21.698;2023-04-03T01:43:58;4.40;;;2.10;;
50309;SDS011;36207;51.850;21.698;2023-04-03T01:46:24;4.30;;;2.00;;
50309;SDS011;36207;51.850;21.698;2023-04-03T01:48:51;4.80;;;2.20;;
50309;SDS011;36207;51.850;21.698;2023-04-03T01:51:17;3.30;;;1.90;;
50309;SDS011;36207;51.850;21.698;2023-04-03T01:53:42;4.20;;;2.10;;
50309;SDS011;36207;51.850;21.698;2023-04-03T01:56:09;6.00;;;2.60;;
50309;SDS011;36207;51.850;21.698;2023-04-03T01:58:35;4.20;;;2.20;;
50309;SDS011;36207;51.850;21.698;2023-04-03T02:01:01;3.40;;;1.90;;
50309;SDS011;36207;51.850;21.698;2023-04-03T02:03:27;2.70;;;2.00;;
50309;SDS011;36207;51.850;21.698;2023-04-03T02:05:53;4.60;;;2.40;;
50309;SDS011;36207;51.850;21.698;2023-04-03T02:08:19;4.10;;;1.80;;
50309;SDS011;36207;51.850;21.698;2023-04-03T02:10:47;4.70;;;2.20;;
50309;SDS011;36207;51.850;21.698;2023-04-03T02:13:13;3.70;;;1.80;;
50309;SDS011;36207;51.850;21.698;2023-04-03T02:15:43;4.60;;;1.70;;
50309;SDS011;36207;51.850;21.698;2023-04-03T02:18:09;4.40;;;2.40;;
50309;SDS011;36207;51.850;21.698;2023-04-03T02:20:35;6.00;;;2.20;;
50309;SDS011;36207;51.850;21.698;2023-04-03T02:23:01;5.20;;;2.10;;
50309;SDS011;36207;51.850;21.698;2023-04-03T02:25:28;5.00;;;2.30;;
50309;SDS011;36207;51.850;21.698;2023-04-03T02:27:56;4.80;;;2.20;;
50309;SDS011;36207;51.850;21.698;2023-04-03T02:30:22;3.90;;;1.80;;
50309;SDS011;36207;51.850;21.698;2023-04-03T02:32:48;3.70;;;1.70;;
50309;SDS011;36207;51.850;21.698;2023-04-03T02:35:14;5.50;;;2.10;;
50309;SDS011;36207;51.850;21.698;2023-04-03T02:37:40;3.80;;;1.90;;
50309;SDS011;36207;51.850;21.698;2023-04-03T02:40:07;4.50;;;1.90;;
50309;SDS011;36207;51.850;21.698;2023-04-03T02:42:33;6.10;;;2.00;;
50309;SDS011;36207;51.850;21.698;2023-04-03T02:45:00;3.40;;;1.60;;
50309;SDS011;36207;51.850;21.698;2023-04-03T02:47:26;5.00;;;2.20;;
50309;SDS011;36207;51.850;21.698;2023-04-03T02:49:53;3.60;;;1.80;;
50309;SDS011;36207;51.850;21.698;2023-04-03T02:52:19;3.00;;;1.50;;
50309;SDS011;36207;51.850;21.698;2023-04-03T02:54:47;5.00;;;2.10;;
50309;SDS011;36207;51.850;21.698;2023-04-03T02:57:13;5.40;;;2.30;;
50309;SDS011;36207;51.850;21.698;2023-04-03T02:59:40;3.10;;;1.70;;
50309;SDS011;36207;51.850;21.698;2023-04-03T03:02:09;4.60;;;2.00;;
50309;SDS011;36207;51.850;21.698;2023-04-03T03:04:35;2.80;;;2.00;;
50309;SDS011;36207;51.850;21.698;2023-04-03T03:07:02;4.80;;;2.10;;
50309;SDS011;36207;51.850;21.698;2023-04-03T03:09:28;4.00;;;2.00;;
50309;SDS011;36207;51.850;21.698;2023-04-03T03:11:55;3.90;;;2.00;;
50309;SDS011;36207;51.850;21.698;2023-04-03T03:14:22;4.20;;;2.00;;
50309;SDS011;36207;51.850;21.698;2023-04-03T03:16:49;4.80;;;2.10;;
50309;SDS011;36207;51.850;21.698;2023-04-03T03:19:15;4.30;;;2.10;;
50309;SDS011;36207;51.850;21.698;2023-04-03T03:21:40;4.50;;;1.80;;
50309;SDS011;36207;51.850;21.698;2023-04-03T03:24:06;4.50;;;1.90;;
50309;SDS011;36207;51.850;21.698;2023-04-03T03:26:33;6.60;;;2.10;;
50309;SDS011;36207;51.850;21.698;2023-04-03T03:28:59;3.10;;;1.60;;
50309;SDS011;36207;51.850;21.698;2023-04-03T03:31:25;5.00;;;1.90;;
50309;SDS011;36207;51.850;21.698;2023-04-03T03:33:51;4.20;;;1.90;;
50309;SDS011;36207;51.850;21.698;2023-04-03T03:36:17;4.70;;;2.10;;
50309;SDS011;36207;51.850;21.698;2023-04-03T03:38:43;5.80;;;2.10;;
50309;SDS011;36207;51.850;21.698;2023-04-03T03:41:09;3.30;;;1.90;;
50309;SDS011;36207;51.850;21.698;2023-04-03T03:43:35;5.00;;;2.30;;
50309;SDS011;36207;51.850;21.698;2023-04-03T03:46:01;4.00;;;1.70;;
50309;SDS011;36207;51.850;21.698;2023-04-03T03:48:27;4.90;;;2.00;;
50309;SDS011;36207;51.850;21.698;2023-04-03T03:50:53;5.20;;;2.00;;
50309;SDS011;36207;51.850;21.698;2023-04-03T03:53:19;3.50;;;1.80;;
50309;SDS011;36207;51.850;21.698;2023-04-03T03:55:47;3.50;;;1.80;;
50309;SDS011;36207;51.850;21.698;2023-04-03T03:58:13;5.40;;;2.10;;
50309;SDS011;36207;51.850;21.698;2023-04-03T04:00:39;5.20;;;2.00;;
50309;SDS011;36207;51.850;21.698;2023-04-03T04:03:05;4.20;;;1.80;;
50309;SDS011;36207;51.850;21.698;2023-04-03T04:05:31;4.00;;;1.90;;
50309;SDS011;36207;51.850;21.698;2023-04-03T04:07:57;4.60;;;2.50;;
50309;SDS011;36207;51.850;21.698;2023-04-03T04:10:23;2.90;;;1.80;;
50309;SDS011;36207;51.850;21.698;2023-04-03T04:12:49;4.90;;;2.10;;
50309;SDS011;36207;51.850;21.698;2023-04-03T04:15:16;6.50;;;2.40;;
50309;SDS011;36207;51.850;21.698;2023-04-03T04:17:43;3.20;;;1.70;;
50309;SDS011;36207;51.850;21.698;2023-04-03T04:20:09;3.20;;;1.70;;
50309;SDS011;36207;51.850;21.698;2023-04-03T04:22:35;3.10;;;2.00;;
50309;SDS011;36207;51.850;21.698;2023-04-03T04:25:01;4.20;;;2.00;;
50309;SDS011;36207;51.850;21.698;2023-04-03T04:27:27;3.10;;;1.90;;
50309;SDS011;36207;51.850;21.698;2023-04-03T04:29:53;4.30;;;2.00;;
50309;SDS011;36207;51.850;21.698;2023-04-03T04:32:23;4.20;;;2.30;;
50309;SDS011;36207;51.850;21.698;2023-04-03T04:34:49;4.60;;;1.80;;
50309;SDS011;36207;51.850;21.698;2023-04-03T04:37:15;4.10;;;1.80;;
50309;SDS011;36207;51.850;21.698;2023-04-03T04:39:41;3.60;;;1.80;;
50309;SDS011;36207;51.850;21.698;2023-04-03T04:42:07;4.60;;;2.10;;
50309;SDS011;36207;51.850;21.698;2023-04-03T04:44:38;4.10;;;2.20;;
50309;SDS011;36207;51.850;21.698;2023-04-03T04:47:05;4.60;;;2.10;;
50309;SDS011;36207;51.850;21.698;2023-04-03T04:49:31;7.20;;;2.10;;
50309;SDS011;36207;51.850;21.698;2023-04-03T04:51:57;4.60;;;2.10;;
50309;SDS011;36207;51.850;21.698;2023-04-03T04:54:23;4.10;;;1.80;;
50309;SDS011;36207;51.850;21.698;2023-04-03T04:56:49;5.00;;;2.10;;
50309;SDS011;36207;51.850;21.698;2023-04-03T04:59:15;4.30;;;2.10;;
50309;SDS011;36207;51.850;21.698;2023-04-03T05:01:41;4.50;;;2.10;;
50309;SDS011;36207;51.850;21.698;2023-04-03T05:04:07;3.60;;;2.20;;
50309;SDS011;36207;51.850;21.698;2023-04-03T05:06:33;4.00;;;1.90;;
50309;SDS011;36207;51.850;21.698;2023-04-03T05:09:00;5.90;;;2.50;;
50309;SDS011;36207;51.850;21.698;2023-04-03T05:11:27;5.70;;;2.30;;
50309;SDS011;36207;51.850;21.698;2023-04-03T05:13:53;5.80;;;2.60;;
50309;SDS011;36207;51.850;21.698;2023-04-03T05:16:19;4.50;;;2.30;;
50309;SDS011;36207;51.850;21.698;2023-04-03T05:18:45;8.30;;;2.60;;
50309;SDS011;36207;51.850;21.698;2023-04-03T05:21:11;6.80;;;2.20;;
50309;SDS011;36207;51.850;21.698;2023-04-03T05:23:37;5.60;;;2.30;;
50309;SDS011;36207;51.850;21.698;2023-04-03T05:26:03;6.60;;;2.60;;
50309;SDS011;36207;51.850;21.698;2023-04-03T05:28:29;4.50;;;2.30;;
50309;SDS011;36207;51.850;21.698;2023-04-03T05:30:56;4.20;;;2.30;;
50309;SDS011;36207;51.850;21.698;2023-04-03T05:33:23;5.10;;;2.40;;
50309;SDS011;36207;51.850;21.698;2023-04-03T05:35:49;4.70;;;2.30;;
50309;SDS011;36207;51.850;21.698;2023-04-03T05:38:15;5.30;;;2.80;;
50309;SDS011;36207;51.850;21.698;2023-04-03T05:40:42;7.50;;;2.70;;
50309;SDS011;36207;51.850;21.698;2023-04-03T05:43:08;8.30;;;2.60;;
50309;SDS011;36207;51.850;21.698;2023-04-03T05:45:35;4.80;;;2.00;;
50309;SDS011;36207;51.850;21.698;2023-04-03T05:48:01;3.60;;;2.20;;
50309;SDS011;36207;51.850;21.698;2023-04-03T05:50:27;3.80;;;2.50;;
50309;SDS011;36207;51.850;21.698;2023-04-03T05:52:54;5.70;;;2.90;;
50309;SDS011;36207;51.850;21.698;2023-04-03T05:55:23;5.70;;;2.50;;
50309;SDS011;36207;51.850;21.698;2023-04-03T05:57:49;7.90;;;2.70;;
50309;SDS011;36207;51.850;21.698;2023-04-03T06:00:16;5.60;;;2.80;;
50309;SDS011;36207;51.850;21.698;2023-04-03T06:02:42;5.70;;;2.70;;
50309;SDS011;36207;51.850;21.698;2023-04-03T06:05:08;4.60;;;2.30;;
50309;SDS011;36207;51.850;21.698;2023-04-03T06:07:37;8.20;;;2.70;;
50309;SDS011;36207;51.850;21.698;2023-04-03T06:10:03;5.00;;;2.80;;
50309;SDS011;36207;51.850;21.698;2023-04-03T06:12:29;6.20;;;3.00;;
50309;SDS011;36207;51.850;21.698;2023-04-03T06:14:55;7.90;;;2.80;;
50309;SDS011;36207;51.850;21.698;2023-04-03T06:17:21;5.70;;;2.60;;
50309;SDS011;36207;51.850;21.698;2023-04-03T06:19:47;5.10;;;2.70;;
50309;SDS011;36207;51.850;21.698;2023-04-03T06:22:14;4.60;;;2.50;;
50309;SDS011;36207;51.850;21.698;2023-04-03T06:24:41;6.30;;;2.40;;
50309;SDS011;36207;51.850;21.698;2023-04-03T06:27:07;5.40;;;2.60;;
50309;SDS011;36207;51.850;21.698;2023-04-03T06:29:33;5.70;;;2.50;;
50309;SDS011;36207;51.850;21.698;2023-04-03T06:31:59;5.40;;;2.50;;
50309;SDS011;36207;51.850;21.698;2023-04-03T06:34:25;6.60;;;2.90;;
50309;SDS011;36207;51.850;21.698;2023-04-03T06:36:51;5.80;;;2.70;;
50309;SDS011;36207;51.850;21.698;2023-04-03T06:39:18;6.70;;;2.90;;
50309;SDS011;36207;51.850;21.698;2023-04-03T06:41:46;6.50;;;2.90;;
50309;SDS011;36207;51.850;21.698;2023-04-03T06:44:12;6.20;;;2.50;;
50309;SDS011;36207;51.850;21.698;2023-04-03T06:46:41;5.40;;;2.80;;
50309;SDS011;36207;51.850;21.698;2023-04-03T06:49:08;5.90;;;2.90;;
50309;SDS011;36207;51.850;21.698;2023-04-03T06:51:35;6.80;;;3.00;;
50309;SDS011;36207;51.850;21.698;2023-04-03T06:54:02;6.50;;;2.80;;
50309;SDS011;36207;51.850;21.698;2023-04-03T06:56:30;6.60;;;3.00;;
50309;SDS011;36207;51.850;21.698;2023-04-03T06:58:56;4.30;;;2.50;;
50309;SDS011;36207;51.850;21.698;2023-04-03T07:01:28;4.00;;;2.50;;
50309;SDS011;36207;51.850;21.698;2023-04-03T07:03:55;6.40;;;2.80;;
50309;SDS011;36207;51.850;21.698;2023-04-03T07:06:24;5.60;;;2.80;;
50309;SDS011;36207;51.850;21.698;2023-04-03T07:08:52;5.40;;;2.50;;
50309;SDS011;36207;51.850;21.698;2023-04-03T07:11:19;5.50;;;2.80;;
50309;SDS011;36207;51.850;21.698;2023-04-03T07:13:45;5.70;;;2.70;;
50309;SDS011;36207;51.850;21.698;2023-04-03T07:16:12;4.60;;;2.70;;
50309;SDS011;36207;51.850;21.698;2023-04-03T07:18:38;6.60;;;3.20;;
50309;SDS011;36207;51.850;21.698;2023-04-03T07:21:04;6.50;;;2.90;;
50309;SDS011;36207;51.850;21.698;2023-04-03T07:23:30;6.10;;;2.80;;
50309;SDS011;36207;51.850;21.698;2023-04-03T07:25:57;6.50;;;3.20;;
50309;SDS011;36207;51.850;21.698;2023-04-03T07:28:23;7.80;;;3.00;;
50309;SDS011;36207;51.850;21.698;2023-04-03T07:30:54;5.30;;;2.90;;
50309;SDS011;36207;51.850;21.698;2023-04-03T07:33:39;6.40;;;2.70;;
50309;SDS011;36207;51.850;21.698;2023-04-03T07:36:06;5.20;;;3.00;;
50309;SDS011;36207;51.850;21.698;2023-04-03T07:38:34;6.00;;;2.80;;
50309;SDS011;36207;51.850;21.698;2023-04-03T07:41:01;5.50;;;3.00;;
50309;SDS011;36207;51.850;21.698;2023-04-03T07:43:27;5.80;;;2.50;;
50309;SDS011;36207;51.850;21.698;2023-04-03T07:45:53;5.00;;;2.70;;
50309;SDS011;36207;51.850;21.698;2023-04-03T07:48:20;5.90;;;2.90;;
50309;SDS011;36207;51.850;21.698;2023-04-03T07:50:48;6.00;;;2.90;;
50309;SDS011;36207;51.850;21.698;2023-04-03T07:53:14;3.50;;;2.20;;
50309;SDS011;36207;51.850;21.698;2023-04-03T07:55:40;6.50;;;3.00;;
50309;SDS011;36207;51.850;21.698;2023-04-03T07:58:12;8.00;;;2.90;;
50309;SDS011;36207;51.850;21.698;2023-04-03T08:00:41;4.80;;;2.50;;
50309;SDS011;36207;51.850;21.698;2023-04-03T08:03:09;5.50;;;2.80;;
50309;SDS011;36207;51.850;21.698;2023-04-03T08:05:37;5.30;;;2.90;;
50309;SDS011;36207;51.850;21.698;2023-04-03T08:08:05;6.30;;;3.40;;
50309;SDS011;36207;51.850;21.698;2023-04-03T08:10:32;6.00;;;3.30;;
50309;SDS011;36207;51.850;21.698;2023-04-03T08:12:58;3.50;;;2.10;;
50309;SDS011;36207;51.850;21.698;2023-04-03T08:15:24;4.30;;;2.20;;
50309;SDS011;36207;51.850;21.698;2023-04-03T08:17:51;3.60;;;2.20;;
50309;SDS011;36207;51.850;21.698;2023-04-03T08:20:17;5.30;;;2.30;;
50309;SDS011;36207;51.850;21.698;2023-04-03T08:22:43;4.10;;;2.30;;
50309;SDS011;36207;51.850;21.698;2023-04-03T08:25:09;4.20;;;2.50;;
50309;SDS011;36207;51.850;21.698;2023-04-03T08:27:35;5.40;;;2.40;;
50309;SDS011;36207;51.850;21.698;2023-04-03T08:30:01;3.50;;;2.00;;
50309;SDS011;36207;51.850;21.698;2023-04-03T08:32:27;3.30;;;2.20;;
50309;SDS011;36207;51.850;21.698;2023-04-03T08:34:53;4.50;;;2.30;;
50309;SDS011;36207;51.850;21.698;2023-04-03T08:37:19;4.80;;;2.50;;
50309;SDS011;36207;51.850;21.698;2023-04-03T08:39:45;3.90;;;2.40;;
50309;SDS011;36207;51.850;21.698;2023-04-03T08:48:11;7.00;;;3.10;;
50309;SDS011;36207;51.850;21.698;2023-04-03T08:50:43;3.80;;;2.10;;
50309;SDS011;36207;51.850;21.698;2023-04-03T08:53:25;4.90;;;2.50;;
50309;SDS011;36207;51.850;21.698;2023-04-03T08:55:56;5.40;;;2.20;;
50309;SDS011;36207;51.850;21.698;2023-04-03T08:58:29;4.40;;;2.30;;
50309;SDS011;36207;51.850;21.698;2023-04-03T09:01:02;3.90;;;2.10;;
50309;SDS011;36207;51.850;21.698;2023-04-03T09:03:32;3.60;;;2.20;;
50309;SDS011;36207;51.850;21.698;2023-04-03T09:06:12;4.50;;;2.60;;
50309;SDS011;36207;51.850;21.698;2023-04-03T09:14:22;5.00;;;2.50;;
50309;SDS011;36207;51.850;21.698;2023-04-03T09:21:51;4.90;;;2.40;;
50309;SDS011;36207;51.850;21.698;2023-04-03T09:24:17;7.30;;;3.00;;
50309;SDS011;36207;51.850;21.698;2023-04-03T09:26:46;3.70;;;2.30;;
50309;SDS011;36207;51.850;21.698;2023-04-03T09:29:17;6.20;;;2.90;;
50309;SDS011;36207;51.850;21.698;2023-04-03T09:31:47;5.70;;;3.00;;
50309;SDS011;36207;51.850;21.698;2023-04-03T09:34:18;4.30;;;2.20;;
50309;SDS011;36207;51.850;21.698;2023-04-03T09:36:52;3.30;;;2.10;;
50309;SDS011;36207;51.850;21.698;2023-04-03T09:39:21;3.60;;;2.10;;
50309;SDS011;36207;51.850;21.698;2023-04-03T09:44:34;3.60;;;2.20;;
50309;SDS011;36207;51.850;21.698;2023-04-03T09:47:17;3.40;;;2.20;;
50309;SDS011;36207;51.850;21.698;2023-04-03T09:49:43;4.30;;;2.30;;
50309;SDS011;36207;51.850;21.698;2023-04-03T09:52:20;5.70;;;2.60;;
50309;SDS011;36207;51.850;21.698;2023-04-03T09:54:50;5.80;;;2.60;;
50309;SDS011;36207;51.850;21.698;2023-04-03T09:57:16;3.40;;;2.50;;
50309;SDS011;36207;51.850;21.698;2023-04-03T10:00:01;6.50;;;2.50;;
50309;SDS011;36207;51.850;21.698;2023-04-03T10:02:37;3.80;;;2.20;;
50309;SDS011;36207;51.850;21.698;2023-04-03T10:05:24;3.20;;;2.00;;
50309;SDS011;36207;51.850;21.698;2023-04-03T10:10:37;3.80;;;2.10;;
50309;SDS011;36207;51.850;21.698;2023-04-03T10:13:09;3.40;;;2.30;;
50309;SDS011;36207;51.850;21.698;2023-04-03T10:15:41;3.90;;;2.30;;
50309;SDS011;36207;51.850;21.698;2023-04-03T10:18:31;4.70;;;2.40;;
50309;SDS011;36207;51.850;21.698;2023-04-03T10:21:07;4.70;;;2.60;;
50309;SDS011;36207;51.850;21.698;2023-04-03T10:23:45;3.60;;;2.40;;
50309;SDS011;36207;51.850;21.698;2023-04-03T10:26:33;4.20;;;2.30;;
50309;SDS011;36207;51.850;21.698;2023-04-03T10:32:26;5.10;;;2.80;;
50309;SDS011;36207;51.850;21.698;2023-04-03T10:34:54;4.00;;;2.60;;
50309;SDS011;36207;51.850;21.698;2023-04-03T10:48:24;3.40;;;2.50;;
50309;SDS011;36207;51.850;21.698;2023-04-03T10:56:21;4.00;;;2.30;;
50309;SDS011;36207;51.850;21.698;2023-04-03T10:58:56;3.60;;;2.20;;
50309;SDS011;36207;51.850;21.698;2023-04-03T11:01:30;3.30;;;2.10;;
50309;SDS011;36207;51.850;21.698;2023-04-03T11:04:01;4.20;;;2.40;;
50309;SDS011;36207;51.850;21.698;2023-04-03T11:06:36;5.10;;;2.40;;
50309;SDS011;36207;51.850;21.698;2023-04-03T11:12:02;4.50;;;2.10;;
50309;SDS011;36207;51.850;21.698;2023-04-03T11:14:31;4.30;;;2.10;;
50309;SDS011;36207;51.850;21.698;2023-04-03T11:19:34;3.10;;;2.10;;
50309;SDS011;36207;51.850;21.698;2023-04-03T11:22:25;6.00;;;3.10;;
50309;SDS011;36207;51.850;21.698;2023-04-03T11:27:58;3.80;;;2.30;;
50309;SDS011;36207;51.850;21.698;2023-04-03T11:30:33;4.20;;;2.30;;
50309;SDS011;36207;51.850;21.698;2023-04-03T11:36:07;3.80;;;2.20;;
50309;SDS011;36207;51.850;21.698;2023-04-03T11:38:35;4.90;;;2.50;;
50309;SDS011;36207;51.850;21.698;2023-04-03T11:41:06;4.20;;;2.20;;
50309;SDS011;36207;51.850;21.698;2023-04-03T11:43:33;2.70;;;1.60;;
50309;SDS011;36207;51.850;21.698;2023-04-03T11:46:06;5.30;;;2.40;;
50309;SDS011;36207;51.850;21.698;2023-04-03T11:53:38;4.30;;;2.30;;
50309;SDS011;36207;51.850;21.698;2023-04-03T12:01:46;5.40;;;2.50;;
50309;SDS011;36207;51.850;21.698;2023-04-03T12:04:15;3.90;;;2.00;;
50309;SDS011;36207;51.850;21.698;2023-04-03T12:06:49;4.80;;;2.50;;
50309;SDS011;36207;51.850;21.698;2023-04-03T12:09:26;3.80;;;2.20;;
50309;SDS011;36207;51.850;21.698;2023-04-03T12:12:00;3.80;;;1.90;;
50309;SDS011;36207;51.850;21.698;2023-04-03T12:14:46;5.30;;;2.50;;
50309;SDS011;36207;51.850;21.698;2023-04-03T12:17:19;3.80;;;2.00;;
50309;SDS011;36207;51.850;21.698;2023-04-03T12:19:50;4.60;;;2.30;;
50309;SDS011;36207;51.850;21.698;2023-04-03T12:22:17;4.40;;;2.20;;
50309;SDS011;36207;51.850;21.698;2023-04-03T12:24:50;3.30;;;2.20;;
50309;SDS011;36207;51.850;21.698;2023-04-03T12:27:21;3.40;;;2.20;;
50309;SDS011;36207;51.850;21.698;2023-04-03T12:29:58;6.50;;;2.80;;
50309;SDS011;36207;51.850;21.698;2023-04-03T12:46:15;5.80;;;2.10;;
50309;SDS011;36207;51.850;21.698;2023-04-03T12:51:13;4.70;;;2.10;;
50309;SDS011;36207;51.850;21.698;2023-04-03T12:53:42;4.50;;;2.00;;
50309;SDS011;36207;51.850;21.698;2023-04-03T12:58:51;2.90;;;1.80;;
50309;SDS011;36207;51.850;21.698;2023-04-03T13:01:20;3.90;;;2.10;;
50309;SDS011;36207;51.850;21.698;2023-04-03T13:03:49;4.20;;;2.00;;
50309;SDS011;36207;51.850;21.698;2023-04-03T13:06:41;4.40;;;1.90;;
50309;SDS011;36207;51.850;21.698;2023-04-03T13:11:44;4.40;;;2.00;;
50309;SDS011;36207;51.850;21.698;2023-04-03T13:14:15;5.10;;;1.90;;
50309;SDS011;36207;51.850;21.698;2023-04-03T13:16:52;4.80;;;1.70;;
50309;SDS011;36207;51.850;21.698;2023-04-03T13:19:20;6.20;;;2.30;;
50309;SDS011;36207;51.850;21.698;2023-04-03T13:21:47;3.50;;;2.40;;
50309;SDS011;36207;51.850;21.698;2023-04-03T13:24:16;4.70;;;2.10;;
50309;SDS011;36207;51.850;21.698;2023-04-03T13:26:42;3.60;;;1.90;;
50309;SDS011;36207;51.850;21.698;2023-04-03T13:29:18;4.40;;;2.40;;
50309;SDS011;36207;51.850;21.698;2023-04-03T13:31:56;5.10;;;2.40;;
50309;SDS011;36207;51.850;21.698;2023-04-03T13:34:25;5.20;;;2.70;;
50309;SDS011;36207;51.850;21.698;2023-04-03T13:41:53;2.80;;;2.20;;
50309;SDS011;36207;51.850;21.698;2023-04-03T13:46:51;3.70;;;2.40;;
50309;SDS011;36207;51.850;21.698;2023-04-03T13:49:27;5.60;;;2.70;;
50309;SDS011;36207;51.850;21.698;2023-04-03T13:54:46;4.80;;;2.60;;
50309;SDS011;36207;51.850;21.698;2023-04-03T13:57:17;6.20;;;2.60;;
50309;SDS011;36207;51.850;21.698;2023-04-03T13:59:43;4.90;;;2.50;;
50309;SDS011;36207;51.850;21.698;2023-04-03T14:07:13;4.20;;;2.20;;
50309;SDS011;36207;51.850;21.698;2023-04-03T14:09:40;4.90;;;2.40;;
50309;SDS011;36207;51.850;21.698;2023-04-03T14:12:13;4.60;;;2.20;;
50309;SDS011;36207;51.850;21.698;2023-04-03T14:14:43;3.80;;;2.20;;
50309;SDS011;36207;51.850;21.698;2023-04-03T14:17:13;5.60;;;3.10;;
50309;SDS011;36207;51.850;21.698;2023-04-03T14:19:42;9.40;;;3.50;;
50309;SDS011;36207;51.850;21.698;2023-04-03T14:22:14;5.70;;;3.50;;
50309;SDS011;36207;51.850;21.698;2023-04-03T14:24:43;6.80;;;3.90;;
50309;SDS011;36207;51.850;21.698;2023-04-03T14:27:19;6.40;;;3.80;;
50309;SDS011;36207;51.850;21.698;2023-04-03T14:29:50;3.20;;;2.50;;
50309;SDS011;36207;51.850;21.698;2023-04-03T14:32:19;5.70;;;2.60;;
50309;SDS011;36207;51.850;21.698;2023-04-03T14:34:47;6.60;;;2.90;;
50309;SDS011;36207;51.850;21.698;2023-04-03T14:37:15;3.50;;;2.30;;
50309;SDS011;36207;51.850;21.698;2023-04-03T14:39:47;6.60;;;2.60;;
50309;SDS011;36207;51.850;21.698;2023-04-03T14:42:15;3.70;;;2.30;;
50309;SDS011;36207;51.850;21.698;2023-04-03T14:44:44;4.70;;;2.50;;
50309;SDS011;36207;51.850;21.698;2023-04-03T14:47:14;5.80;;;2.70;;
50309;SDS011;36207;51.850;21.698;2023-04-03T14:49:42;4.40;;;2.50;;
50309;SDS011;36207;51.850;21.698;2023-04-03T14:52:16;8.60;;;3.20;;
50309;SDS011;36207;51.850;21.698;2023-04-03T14:54:46;5.00;;;3.10;;
50309;SDS011;36207;51.850;21.698;2023-04-03T14:57:16;6.10;;;2.90;;
50309;SDS011;36207;51.850;21.698;2023-04-03T14:59:43;4.40;;;3.00;;
50309;SDS011;36207;51.850;21.698;2023-04-03T15:04:58;5.90;;;3.10;;
50309;SDS011;36207;51.850;21.698;2023-04-03T15:07:27;4.70;;;2.70;;
50309;SDS011;36207;51.850;21.698;2023-04-03T15:09:55;6.10;;;3.00;;
50309;SDS011;36207;51.850;21.698;2023-04-03T15:12:22;6.10;;;3.20;;
50309;SDS011;36207;51.850;21.698;2023-04-03T15:14:49;5.90;;;2.90;;
50309;SDS011;36207;51.850;21.698;2023-04-03T15:17:16;5.80;;;3.00;;
50309;SDS011;36207;51.850;21.698;2023-04-03T15:19:45;4.50;;;2.70;;
50309;SDS011;36207;51.850;21.698;2023-04-03T15:22:18;5.20;;;3.00;;
50309;SDS011;36207;51.850;21.698;2023-04-03T15:24:44;4.60;;;2.90;;
50309;SDS011;36207;51.850;21.698;2023-04-03T15:27:11;7.00;;;3.40;;
50309;SDS011;36207;51.850;21.698;2023-04-03T15:29:39;7.10;;;3.30;;
50309;SDS011;36207;51.850;21.698;2023-04-03T15:32:06;5.80;;;2.80;;
50309;SDS011;36207;51.850;21.698;2023-04-03T15:34:35;4.50;;;2.60;;
50309;SDS011;36207;51.850;21.698;2023-04-03T15:37:01;10.00;;;3.10;;
50309;SDS011;36207;51.850;21.698;2023-04-03T15:39:28;6.30;;;3.50;;
50309;SDS011;36207;51.850;21.698;2023-04-03T15:41:54;7.10;;;3.30;;
50309;SDS011;36207;51.850;21.698;2023-04-03T15:44:22;6.80;;;4.00;;
50309;SDS011;36207;51.850;21.698;2023-04-03T15:46:48;10.20;;;4.30;;
50309;SDS011;36207;51.850;21.698;2023-04-03T15:49:19;9.20;;;3.80;;
50309;SDS011;36207;51.850;21.698;2023-04-03T15:51:47;8.10;;;3.70;;
50309;SDS011;36207;51.850;21.698;2023-04-03T15:54:13;6.50;;;3.70;;
50309;SDS011;36207;51.850;21.698;2023-04-03T15:56:39;4.50;;;3.20;;
50309;SDS011;36207;51.850;21.698;2023-04-03T15:59:05;3.90;;;2.50;;
50309;SDS011;36207;51.850;21.698;2023-04-03T16:01:31;4.80;;;2.60;;
50309;SDS011;36207;51.850;21.698;2023-04-03T16:03:58;5.20;;;2.60;;
50309;SDS011;36207;51.850;21.698;2023-04-03T16:06:24;4.40;;;2.60;;
50309;SDS011;36207;51.850;21.698;2023-04-03T16:08:51;4.90;;;3.00;;
50309;SDS011;36207;51.850;21.698;2023-04-03T16:11:19;12.10;;;4.80;;
50309;SDS011;36207;51.850;21.698;2023-04-03T16:13:45;9.30;;;4.40;;
50309;SDS011;36207;51.850;21.698;2023-04-03T16:16:11;7.20;;;3.20;;
50309;SDS011;36207;51.850;21.698;2023-04-03T16:18:37;6.00;;;2.90;;
50309;SDS011;36207;51.850;21.698;2023-04-03T16:21:03;6.50;;;3.20;;
50309;SDS011;36207;51.850;21.698;2023-04-03T16:23:32;5.80;;;3.30;;
50309;SDS011;36207;51.850;21.698;2023-04-03T16:25:58;5.80;;;3.20;;
50309;SDS011;36207;51.850;21.698;2023-04-03T16:28:24;6.80;;;3.50;;
50309;SDS011;36207;51.850;21.698;2023-04-03T16:30:50;5.50;;;3.50;;
50309;SDS011;36207;51.850;21.698;2023-04-03T16:33:17;6.70;;;3.70;;